sensor_id;sensor_type;location;lat;lon;timestamp;temperature;humidity
1948;DHT22;974;52.400;9.818;2022-09-19T00:01:13;9.90;99.90
1948;DHT22;974;52.400;9.818;2022-09-19T00:03:40;9.90;99.90
1948;DHT22;974;52.400;9.818;2022-09-19T00:06:07;9.90;99.90
1948;DHT22;974;52.400;9.818;2022-09-19T00:08:36;9.90;99.90
1948;DHT22;974;52.400;9.818;2022-09-19T00:11:02;9.90;99.90
1948;DHT22;974;52.400;9.818;2022-09-19T00:13:29;9.90;99.90
1948;DHT22;974;52.400;9.818;2022-09-19T00:15:56;9.90;99.90
1948;DHT22;974;52.400;9.818;2022-09-19T00:18:22;9.90;99.90
1948;DHT22;974;52.400;9.818;2022-09-19T00:20:47;9.90;99.90
1948;DHT22;974;52.400;9.818;2022-09-19T00:23:15;9.90;99.90
1948;DHT22;974;52.400;9.818;2022-09-19T00:26:01;9.90;99.90
1948;DHT22;974;52.400;9.818;2022-09-19T00:28:27;9.90;99.90
1948;DHT22;974;52.400;9.818;2022-09-19T00:30:57;9.90;99.90
1948;DHT22;974;52.400;9.818;2022-09-19T00:33:24;9.90;99.90
1948;DHT22;974;52.400;9.818;2022-09-19T00:35:54;9.90;99.90
1948;DHT22;974;52.400;9.818;2022-09-19T00:38:24;9.90;99.90
1948;DHT22;974;52.400;9.818;2022-09-19T00:40:51;9.90;99.90
1948;DHT22;974;52.400;9.818;2022-09-19T00:43:18;9.90;99.90
1948;DHT22;974;52.400;9.818;2022-09-19T00:45:45;9.90;99.90
1948;DHT22;974;52.400;9.818;2022-09-19T00:48:11;9.90;99.90
1948;DHT22;974;52.400;9.818;2022-09-19T00:50:39;9.90;99.90
1948;DHT22;974;52.400;9.818;2022-09-19T00:53:12;9.90;99.90
1948;DHT22;974;52.400;9.818;2022-09-19T00:55:39;9.90;99.90
1948;DHT22;974;52.400;9.818;2022-09-19T00:58:21;9.90;99.90
1948;DHT22;974;52.400;9.818;2022-09-19T01:00:49;9.90;99.90
1948;DHT22;974;52.400;9.818;2022-09-19T01:03:15;9.90;99.90
1948;DHT22;974;52.400;9.818;2022-09-19T01:11:45;9.90;99.90
1948;DHT22;974;52.400;9.818;2022-09-19T01:14:38;9.90;99.90
1948;DHT22;974;52.400;9.818;2022-09-19T01:17:24;9.90;99.90
1948;DHT22;974;52.400;9.818;2022-09-19T01:20:38;9.90;99.90
1948;DHT22;974;52.400;9.818;2022-09-19T01:28:50;9.90;99.90
1948;DHT22;974;52.400;9.818;2022-09-19T01:31:28;9.90;99.90
1948;DHT22;974;52.400;9.818;2022-09-19T01:34:12;9.80;99.90
1948;DHT22;974;52.400;9.818;2022-09-19T01:36:48;9.80;99.90
1948;DHT22;974;52.400;9.818;2022-09-19T01:39:22;9.80;99.90
1948;DHT22;974;52.400;9.818;2022-09-19T01:41:53;9.90;99.90
1948;DHT22;974;52.400;9.818;2022-09-19T01:44:22;9.90;99.90
1948;DHT22;974;52.400;9.818;2022-09-19T01:50:07;9.80;99.90
1948;DHT22;974;52.400;9.818;2022-09-19T02:03:46;9.70;99.90
1948;DHT22;974;52.400;9.818;2022-09-19T02:08:50;9.60;99.90
1948;DHT22;974;52.400;9.818;2022-09-19T02:11:19;9.60;99.90
1948;DHT22;974;52.400;9.818;2022-09-19T02:14:01;9.60;99.90
1948;DHT22;974;52.400;9.818;2022-09-19T02:16:42;9.50;99.90
1948;DHT22;974;52.400;9.818;2022-09-19T02:19:23;9.60;99.90
1948;DHT22;974;52.400;9.818;2022-09-19T02:21:54;9.50;99.90
1948;DHT22;974;52.400;9.818;2022-09-19T02:24:26;9.50;99.90
1948;DHT22;974;52.400;9.818;2022-09-19T02:26:54;9.40;99.90
1948;DHT22;974;52.400;9.818;2022-09-19T02:29:27;9.40;99.90
1948;DHT22;974;52.400;9.818;2022-09-19T02:31:56;9.40;99.90
1948;DHT22;974;52.400;9.818;2022-09-19T02:34:22;9.40;99.90
1948;DHT22;974;52.400;9.818;2022-09-19T02:37:02;9.40;99.90
1948;DHT22;974;52.400;9.818;2022-09-19T02:39:35;9.30;99.90
1948;DHT22;974;52.400;9.818;2022-09-19T02:42:10;9.30;99.90
1948;DHT22;974;52.400;9.818;2022-09-19T02:45:03;9.30;99.90
1948;DHT22;974;52.400;9.818;2022-09-19T02:47:45;9.30;99.90
1948;DHT22;974;52.400;9.818;2022-09-19T02:50:25;9.40;99.90
1948;DHT22;974;52.400;9.818;2022-09-19T02:52:54;9.30;99.90
1948;DHT22;974;52.400;9.818;2022-09-19T02:55:28;9.30;99.90
1948;DHT22;974;52.400;9.818;2022-09-19T02:57:58;9.30;99.90
1948;DHT22;974;52.400;9.818;2022-09-19T03:00:28;9.30;99.90
1948;DHT22;974;52.400;9.818;2022-09-19T03:03:00;9.30;99.90
1948;DHT22;974;52.400;9.818;2022-09-19T03:05:28;9.30;99.90
1948;DHT22;974;52.400;9.818;2022-09-19T03:08:07;9.30;99.90
1948;DHT22;974;52.400;9.818;2022-09-19T03:10:43;9.30;99.90
1948;DHT22;974;52.400;9.818;2022-09-19T03:13:11;9.30;99.90
1948;DHT22;974;52.400;9.818;2022-09-19T03:15:47;9.30;99.90
1948;DHT22;974;52.400;9.818;2022-09-19T03:18:16;9.20;99.90
1948;DHT22;974;52.400;9.818;2022-09-19T03:20:52;9.20;99.90
1948;DHT22;974;52.400;9.818;2022-09-19T03:23:21;9.20;99.90
1948;DHT22;974;52.400;9.818;2022-09-19T03:25:49;9.20;99.90
1948;DHT22;974;52.400;9.818;2022-09-19T03:28:14;9.20;99.90
1948;DHT22;974;52.400;9.818;2022-09-19T03:30:45;9.20;99.90
1948;DHT22;974;52.400;9.818;2022-09-19T03:33:10;9.20;99.90
1948;DHT22;974;52.400;9.818;2022-09-19T03:35:40;9.20;99.90
1948;DHT22;974;52.400;9.818;2022-09-19T03:38:06;9.10;99.90
1948;DHT22;974;52.400;9.818;2022-09-19T03:40:32;9.10;99.90
1948;DHT22;974;52.400;9.818;2022-09-19T03:42:58;9.10;99.90
1948;DHT22;974;52.400;9.818;2022-09-19T03:45:23;9.10;99.90
1948;DHT22;974;52.400;9.818;2022-09-19T03:47:49;9.10;99.90
1948;DHT22;974;52.400;9.818;2022-09-19T03:50:14;9.10;99.90
1948;DHT22;974;52.400;9.818;2022-09-19T03:52:40;9.00;99.90
1948;DHT22;974;52.400;9.818;2022-09-19T03:55:06;9.00;99.90
1948;DHT22;974;52.400;9.818;2022-09-19T03:57:32;9.10;99.90
1948;DHT22;974;52.400;9.818;2022-09-19T03:59:57;9.00;99.90
1948;DHT22;974;52.400;9.818;2022-09-19T04:02:23;9.00;99.90
1948;DHT22;974;52.400;9.818;2022-09-19T04:04:48;9.00;99.90
1948;DHT22;974;52.400;9.818;2022-09-19T04:07:14;9.00;99.90
1948;DHT22;974;52.400;9.818;2022-09-19T04:09:41;9.00;99.90
1948;DHT22;974;52.400;9.818;2022-09-19T04:12:06;9.00;99.90
1948;DHT22;974;52.400;9.818;2022-09-19T04:14:32;9.00;99.90
1948;DHT22;974;52.400;9.818;2022-09-19T04:16:58;9.00;99.90
1948;DHT22;974;52.400;9.818;2022-09-19T04:19:24;9.00;99.90
1948;DHT22;974;52.400;9.818;2022-09-19T04:21:52;9.00;99.90
1948;DHT22;974;52.400;9.818;2022-09-19T04:24:17;9.00;99.90
1948;DHT22;974;52.400;9.818;2022-09-19T04:26:43;9.00;99.90
1948;DHT22;974;52.400;9.818;2022-09-19T04:29:09;9.00;99.90
1948;DHT22;974;52.400;9.818;2022-09-19T04:31:35;9.00;99.90
1948;DHT22;974;52.400;9.818;2022-09-19T04:34:04;9.00;99.90
1948;DHT22;974;52.400;9.818;2022-09-19T04:36:30;9.00;99.90
1948;DHT22;974;52.400;9.818;2022-09-19T04:38:58;9.00;99.90
1948;DHT22;974;52.400;9.818;2022-09-19T04:41:30;9.00;99.90
1948;DHT22;974;52.400;9.818;2022-09-19T04:43:57;9.00;99.90
1948;DHT22;974;52.400;9.818;2022-09-19T04:46:23;9.00;99.90
1948;DHT22;974;52.400;9.818;2022-09-19T04:48:49;9.00;99.90
1948;DHT22;974;52.400;9.818;2022-09-19T04:51:15;9.00;99.90
1948;DHT22;974;52.400;9.818;2022-09-19T04:53:41;9.00;99.90
1948;DHT22;974;52.400;9.818;2022-09-19T04:56:07;9.00;99.90
1948;DHT22;974;52.400;9.818;2022-09-19T04:58:32;9.00;99.90
1948;DHT22;974;52.400;9.818;2022-09-19T05:00:58;9.00;99.90
1948;DHT22;974;52.400;9.818;2022-09-19T05:03:24;9.00;99.90
1948;DHT22;974;52.400;9.818;2022-09-19T05:05:51;9.00;99.90
1948;DHT22;974;52.400;9.818;2022-09-19T05:08:20;9.00;99.90
1948;DHT22;974;52.400;9.818;2022-09-19T05:10:55;8.90;99.90
1948;DHT22;974;52.400;9.818;2022-09-19T05:13:22;8.90;99.90
1948;DHT22;974;52.400;9.818;2022-09-19T05:15:48;9.00;99.90
1948;DHT22;974;52.400;9.818;2022-09-19T05:18:15;9.00;99.90
1948;DHT22;974;52.400;9.818;2022-09-19T05:20:42;9.10;99.90
1948;DHT22;974;52.400;9.818;2022-09-19T05:23:08;9.10;99.90
1948;DHT22;974;52.400;9.818;2022-09-19T05:25:37;9.10;99.90
1948;DHT22;974;52.400;9.818;2022-09-19T05:28:06;9.10;99.90
1948;DHT22;974;52.400;9.818;2022-09-19T05:30:33;9.20;99.90
1948;DHT22;974;52.400;9.818;2022-09-19T05:33:00;9.20;99.90
1948;DHT22;974;52.400;9.818;2022-09-19T05:35:26;9.20;99.90
1948;DHT22;974;52.400;9.818;2022-09-19T05:37:52;9.20;99.90
1948;DHT22;974;52.400;9.818;2022-09-19T05:40:18;9.20;99.90
1948;DHT22;974;52.400;9.818;2022-09-19T05:42:45;9.30;99.90
1948;DHT22;974;52.400;9.818;2022-09-19T05:45:15;9.30;99.90
1948;DHT22;974;52.400;9.818;2022-09-19T05:47:40;9.30;99.90
1948;DHT22;974;52.400;9.818;2022-09-19T05:50:07;9.30;99.90
1948;DHT22;974;52.400;9.818;2022-09-19T05:52:35;9.40;99.90
1948;DHT22;974;52.400;9.818;2022-09-19T05:55:19;9.40;99.90
1948;DHT22;974;52.400;9.818;2022-09-19T05:57:56;9.40;99.90
1948;DHT22;974;52.400;9.818;2022-09-19T06:00:24;9.50;99.90
1948;DHT22;974;52.400;9.818;2022-09-19T06:03:04;9.60;99.90
1948;DHT22;974;52.400;9.818;2022-09-19T06:05:40;9.60;99.90
1948;DHT22;974;52.400;9.818;2022-09-19T06:08:07;9.60;99.90
1948;DHT22;974;52.400;9.818;2022-09-19T06:10:35;9.70;99.90
1948;DHT22;974;52.400;9.818;2022-09-19T06:13:02;9.70;99.90
1948;DHT22;974;52.400;9.818;2022-09-19T06:15:28;9.80;99.90
1948;DHT22;974;52.400;9.818;2022-09-19T06:17:57;9.90;99.90
1948;DHT22;974;52.400;9.818;2022-09-19T06:20:23;9.90;99.90
1948;DHT22;974;52.400;9.818;2022-09-19T06:22:49;10.00;99.90
1948;DHT22;974;52.400;9.818;2022-09-19T06:25:16;10.00;99.90
1948;DHT22;974;52.400;9.818;2022-09-19T06:27:42;10.00;99.90
1948;DHT22;974;52.400;9.818;2022-09-19T06:30:12;10.10;99.90
1948;DHT22;974;52.400;9.818;2022-09-19T06:32:38;10.10;99.90
1948;DHT22;974;52.400;9.818;2022-09-19T06:35:04;10.20;99.90
1948;DHT22;974;52.400;9.818;2022-09-19T06:37:30;10.20;99.90
1948;DHT22;974;52.400;9.818;2022-09-19T06:39:55;10.20;99.90
1948;DHT22;974;52.400;9.818;2022-09-19T06:42:22;10.30;99.90
1948;DHT22;974;52.400;9.818;2022-09-19T06:44:47;10.30;99.90
1948;DHT22;974;52.400;9.818;2022-09-19T06:47:13;10.40;99.90
1948;DHT22;974;52.400;9.818;2022-09-19T06:49:38;10.30;99.90
1948;DHT22;974;52.400;9.818;2022-09-19T06:52:04;10.40;99.90
1948;DHT22;974;52.400;9.818;2022-09-19T06:54:30;10.30;99.90
1948;DHT22;974;52.400;9.818;2022-09-19T06:56:55;10.30;99.90
1948;DHT22;974;52.400;9.818;2022-09-19T06:59:20;10.30;99.90
1948;DHT22;974;52.400;9.818;2022-09-19T07:01:47;10.30;99.90
1948;DHT22;974;52.400;9.818;2022-09-19T07:04:13;10.30;99.90
1948;DHT22;974;52.400;9.818;2022-09-19T07:06:38;10.30;99.90
1948;DHT22;974;52.400;9.818;2022-09-19T07:09:05;10.40;99.90
1948;DHT22;974;52.400;9.818;2022-09-19T07:11:32;10.40;99.90
1948;DHT22;974;52.400;9.818;2022-09-19T07:13:58;10.50;99.90
1948;DHT22;974;52.400;9.818;2022-09-19T07:16:24;10.50;99.90
1948;DHT22;974;52.400;9.818;2022-09-19T07:18:50;10.60;99.90
1948;DHT22;974;52.400;9.818;2022-09-19T07:21:15;10.70;99.90
1948;DHT22;974;52.400;9.818;2022-09-19T07:23:40;10.80;99.90
1948;DHT22;974;52.400;9.818;2022-09-19T07:26:06;10.90;99.90
1948;DHT22;974;52.400;9.818;2022-09-19T07:28:32;11.00;99.90
1948;DHT22;974;52.400;9.818;2022-09-19T07:30:59;11.00;99.90
1948;DHT22;974;52.400;9.818;2022-09-19T07:33:25;11.10;99.90
1948;DHT22;974;52.400;9.818;2022-09-19T07:35:53;11.10;99.90
1948;DHT22;974;52.400;9.818;2022-09-19T07:38:20;11.20;99.90
1948;DHT22;974;52.400;9.818;2022-09-19T07:40:46;11.20;99.90
1948;DHT22;974;52.400;9.818;2022-09-19T07:43:13;11.30;99.90
1948;DHT22;974;52.400;9.818;2022-09-19T07:45:42;11.30;99.90
1948;DHT22;974;52.400;9.818;2022-09-19T07:48:08;11.40;99.90
1948;DHT22;974;52.400;9.818;2022-09-19T07:50:34;11.50;99.90
1948;DHT22;974;52.400;9.818;2022-09-19T07:53:04;11.50;99.90
1948;DHT22;974;52.400;9.818;2022-09-19T07:55:30;11.60;99.90
1948;DHT22;974;52.400;9.818;2022-09-19T07:57:58;11.70;99.90
1948;DHT22;974;52.400;9.818;2022-09-19T08:00:25;11.70;99.90
1948;DHT22;974;52.400;9.818;2022-09-19T08:03:04;11.80;99.90
1948;DHT22;974;52.400;9.818;2022-09-19T08:05:35;11.90;99.90
1948;DHT22;974;52.400;9.818;2022-09-19T08:08:03;11.90;99.90
1948;DHT22;974;52.400;9.818;2022-09-19T08:10:29;12.00;99.90
1948;DHT22;974;52.400;9.818;2022-09-19T08:12:59;12.00;99.90
1948;DHT22;974;52.400;9.818;2022-09-19T08:15:24;12.10;99.90
1948;DHT22;974;52.400;9.818;2022-09-19T08:17:58;12.20;99.90
1948;DHT22;974;52.400;9.818;2022-09-19T08:20:25;12.30;99.90
1948;DHT22;974;52.400;9.818;2022-09-19T08:23:06;12.30;99.90
1948;DHT22;974;52.400;9.818;2022-09-19T08:25:34;12.40;99.90
1948;DHT22;974;52.400;9.818;2022-09-19T08:28:00;12.50;99.90
1948;DHT22;974;52.400;9.818;2022-09-19T08:30:29;12.60;99.90
1948;DHT22;974;52.400;9.818;2022-09-19T08:32:55;12.60;99.90
1948;DHT22;974;52.400;9.818;2022-09-19T08:35:22;12.70;99.90
1948;DHT22;974;52.400;9.818;2022-09-19T08:37:53;12.90;99.90
1948;DHT22;974;52.400;9.818;2022-09-19T08:40:31;13.00;99.90
1948;DHT22;974;52.400;9.818;2022-09-19T08:43:17;13.20;99.90
1948;DHT22;974;52.400;9.818;2022-09-19T08:46:12;13.40;99.90
1948;DHT22;974;52.400;9.818;2022-09-19T08:48:58;13.30;99.90
1948;DHT22;974;52.400;9.818;2022-09-19T08:51:28;13.30;99.90
1948;DHT22;974;52.400;9.818;2022-09-19T08:54:05;13.30;99.90
1948;DHT22;974;52.400;9.818;2022-09-19T08:56:37;13.30;99.90
1948;DHT22;974;52.400;9.818;2022-09-19T08:59:08;13.30;99.90
1948;DHT22;974;52.400;9.818;2022-09-19T09:01:37;13.30;99.90
1948;DHT22;974;52.400;9.818;2022-09-19T09:12:30;13.50;99.90
1948;DHT22;974;52.400;9.818;2022-09-19T09:15:23;13.50;99.90
1948;DHT22;974;52.400;9.818;2022-09-19T09:18:01;13.50;99.90
1948;DHT22;974;52.400;9.818;2022-09-19T09:23:22;13.60;99.90
1948;DHT22;974;52.400;9.818;2022-09-19T09:26:01;13.70;99.90
1948;DHT22;974;52.400;9.818;2022-09-19T09:28:44;13.70;99.90
1948;DHT22;974;52.400;9.818;2022-09-19T09:31:34;13.80;99.90
1948;DHT22;974;52.400;9.818;2022-09-19T09:34:05;13.90;99.90
1948;DHT22;974;52.400;9.818;2022-09-19T09:36:54;13.80;99.90
1948;DHT22;974;52.400;9.818;2022-09-19T09:39:25;13.90;99.90
1948;DHT22;974;52.400;9.818;2022-09-19T09:41:54;14.00;99.90
1948;DHT22;974;52.400;9.818;2022-09-19T09:44:42;14.10;99.90
1948;DHT22;974;52.400;9.818;2022-09-19T09:47:36;14.50;99.90
1948;DHT22;974;52.400;9.818;2022-09-19T09:50:42;14.60;99.90
1948;DHT22;974;52.400;9.818;2022-09-19T09:56:27;14.70;99.90
1948;DHT22;974;52.400;9.818;2022-09-19T10:01:33;14.70;99.90
1948;DHT22;974;52.400;9.818;2022-09-19T10:09:25;14.70;99.90
1948;DHT22;974;52.400;9.818;2022-09-19T10:12:05;14.60;99.90
1948;DHT22;974;52.400;9.818;2022-09-19T10:14:37;14.60;99.90
1948;DHT22;974;52.400;9.818;2022-09-19T10:17:04;14.50;99.90
1948;DHT22;974;52.400;9.818;2022-09-19T10:19:40;14.40;99.90
1948;DHT22;974;52.400;9.818;2022-09-19T10:22:11;14.40;99.90
1948;DHT22;974;52.400;9.818;2022-09-19T10:24:52;14.60;99.90
1948;DHT22;974;52.400;9.818;2022-09-19T10:27:35;14.80;99.90
1948;DHT22;974;52.400;9.818;2022-09-19T10:30:14;14.80;99.90
1948;DHT22;974;52.400;9.818;2022-09-19T10:32:44;14.90;99.90
1948;DHT22;974;52.400;9.818;2022-09-19T10:35:32;14.90;99.90
1948;DHT22;974;52.400;9.818;2022-09-19T10:38:24;15.10;99.90
1948;DHT22;974;52.400;9.818;2022-09-19T10:40:59;15.10;99.90
1948;DHT22;974;52.400;9.818;2022-09-19T10:45:57;15.00;99.90
1948;DHT22;974;52.400;9.818;2022-09-19T10:48:29;14.80;99.90
1948;DHT22;974;52.400;9.818;2022-09-19T10:50:56;14.70;99.90
1948;DHT22;974;52.400;9.818;2022-09-19T10:53:29;14.70;99.90
1948;DHT22;974;52.400;9.818;2022-09-19T10:55:58;14.60;99.90
1948;DHT22;974;52.400;9.818;2022-09-19T10:58:26;14.40;99.90
1948;DHT22;974;52.400;9.818;2022-09-19T11:01:01;14.40;99.90
1948;DHT22;974;52.400;9.818;2022-09-19T11:03:28;14.40;99.90
1948;DHT22;974;52.400;9.818;2022-09-19T11:06:14;14.50;99.90
1948;DHT22;974;52.400;9.818;2022-09-19T11:08:43;14.60;99.90
1948;DHT22;974;52.400;9.818;2022-09-19T11:19:33;15.00;99.90
1948;DHT22;974;52.400;9.818;2022-09-19T11:22:33;15.10;99.90
1948;DHT22;974;52.400;9.818;2022-09-19T11:25:30;15.30;99.90
1948;DHT22;974;52.400;9.818;2022-09-19T11:31:13;15.10;99.90
1948;DHT22;974;52.400;9.818;2022-09-19T11:34:01;14.90;99.90
1948;DHT22;974;52.400;9.818;2022-09-19T11:39:15;15.10;99.90
1948;DHT22;974;52.400;9.818;2022-09-19T11:47:08;15.70;99.90
1948;DHT22;974;52.400;9.818;2022-09-19T11:58:08;15.40;99.90
1948;DHT22;974;52.400;9.818;2022-09-19T12:01:09;15.00;99.90
1948;DHT22;974;52.400;9.818;2022-09-19T12:03:49;14.70;99.90
1948;DHT22;974;52.400;9.818;2022-09-19T12:09:21;14.40;99.90
1948;DHT22;974;52.400;9.818;2022-09-19T12:11:54;14.50;99.90
1948;DHT22;974;52.400;9.818;2022-09-19T12:14:26;14.40;99.90
1948;DHT22;974;52.400;9.818;2022-09-19T12:16:56;14.40;99.90
1948;DHT22;974;52.400;9.818;2022-09-19T12:19:28;14.30;99.90
1948;DHT22;974;52.400;9.818;2022-09-19T12:22:03;14.20;99.90
1948;DHT22;974;52.400;9.818;2022-09-19T12:24:42;14.20;99.90
1948;DHT22;974;52.400;9.818;2022-09-19T12:32:36;13.50;99.90
1948;DHT22;974;52.400;9.818;2022-09-19T12:35:35;13.10;99.90
1948;DHT22;974;52.400;9.818;2022-09-19T12:38:25;12.80;99.90
1948;DHT22;974;52.400;9.818;2022-09-19T12:40:59;12.70;99.90
1948;DHT22;974;52.400;9.818;2022-09-19T12:43:35;12.60;99.90
1948;DHT22;974;52.400;9.818;2022-09-19T12:48:51;12.10;99.90
1948;DHT22;974;52.400;9.818;2022-09-19T12:51:25;12.00;99.90
1948;DHT22;974;52.400;9.818;2022-09-19T12:54:05;12.10;99.90
1948;DHT22;974;52.400;9.818;2022-09-19T12:56:40;12.00;99.90
1948;DHT22;974;52.400;9.818;2022-09-19T12:59:21;12.30;99.90
1948;DHT22;974;52.400;9.818;2022-09-19T13:01:56;14.70;99.90
1948;DHT22;974;52.400;9.818;2022-09-19T13:04:30;17.10;99.90
1948;DHT22;974;52.400;9.818;2022-09-19T13:07:18;19.70;99.90
1948;DHT22;974;52.400;9.818;2022-09-19T13:10:04;19.60;99.90
1948;DHT22;974;52.400;9.818;2022-09-19T13:12:43;18.80;99.90
1948;DHT22;974;52.400;9.818;2022-09-19T13:15:16;17.80;99.90
1948;DHT22;974;52.400;9.818;2022-09-19T13:17:45;17.60;99.90
1948;DHT22;974;52.400;9.818;2022-09-19T13:20:37;17.20;99.90
1948;DHT22;974;52.400;9.818;2022-09-19T13:23:25;16.80;99.90
1948;DHT22;974;52.400;9.818;2022-09-19T13:26:36;17.00;99.90
1948;DHT22;974;52.400;9.818;2022-09-19T13:34:37;16.10;99.90
1948;DHT22;974;52.400;9.818;2022-09-19T13:40:01;15.80;99.90
1948;DHT22;974;52.400;9.818;2022-09-19T13:42:37;15.80;99.90
1948;DHT22;974;52.400;9.818;2022-09-19T13:45:34;15.80;99.90
1948;DHT22;974;52.400;9.818;2022-09-19T13:48:09;15.90;99.90
1948;DHT22;974;52.400;9.818;2022-09-19T13:50:46;15.70;99.90
1948;DHT22;974;52.400;9.818;2022-09-19T13:53:29;15.60;99.90
1948;DHT22;974;52.400;9.818;2022-09-19T13:56:04;15.50;99.90
1948;DHT22;974;52.400;9.818;2022-09-19T13:59:15;15.30;99.90
1948;DHT22;974;52.400;9.818;2022-09-19T14:01:57;15.20;99.90
1948;DHT22;974;52.400;9.818;2022-09-19T14:04:23;15.10;99.90
1948;DHT22;974;52.400;9.818;2022-09-19T14:07:28;15.10;99.90
1948;DHT22;974;52.400;9.818;2022-09-19T14:10:01;15.10;99.90
1948;DHT22;974;52.400;9.818;2022-09-19T14:20:51;14.70;99.90
1948;DHT22;974;52.400;9.818;2022-09-19T14:23:26;14.50;99.90
1948;DHT22;974;52.400;9.818;2022-09-19T14:28:54;14.10;99.90
1948;DHT22;974;52.400;9.818;2022-09-19T14:31:54;13.50;99.90
1948;DHT22;974;52.400;9.818;2022-09-19T14:40:20;12.60;99.90
1948;DHT22;974;52.400;9.818;2022-09-19T14:43:25;12.30;99.90
1948;DHT22;974;52.400;9.818;2022-09-19T14:46:06;12.00;99.90
1948;DHT22;974;52.400;9.818;2022-09-19T14:48:43;12.00;99.90
1948;DHT22;974;52.400;9.818;2022-09-19T14:53:47;11.60;99.90
1948;DHT22;974;52.400;9.818;2022-09-19T14:56:16;11.40;99.90
1948;DHT22;974;52.400;9.818;2022-09-19T14:58:51;11.40;99.90
1948;DHT22;974;52.400;9.818;2022-09-19T15:01:27;11.40;99.90
1948;DHT22;974;52.400;9.818;2022-09-19T15:03:59;11.50;99.90
1948;DHT22;974;52.400;9.818;2022-09-19T15:06:31;11.60;99.90
1948;DHT22;974;52.400;9.818;2022-09-19T15:09:27;12.00;99.90
1948;DHT22;974;52.400;9.818;2022-09-19T15:11:55;12.20;99.90
1948;DHT22;974;52.400;9.818;2022-09-19T15:14:22;12.10;99.90
1948;DHT22;974;52.400;9.818;2022-09-19T15:17:07;12.00;99.90
1948;DHT22;974;52.400;9.818;2022-09-19T15:19:43;11.80;99.90
1948;DHT22;974;52.400;9.818;2022-09-19T15:22:29;11.80;99.90
1948;DHT22;974;52.400;9.818;2022-09-19T15:24:58;11.90;99.90
1948;DHT22;974;52.400;9.818;2022-09-19T15:27:26;11.90;99.90
1948;DHT22;974;52.400;9.818;2022-09-19T15:29:52;11.80;99.90
1948;DHT22;974;52.400;9.818;2022-09-19T15:32:25;11.80;99.90
1948;DHT22;974;52.400;9.818;2022-09-19T15:34:56;11.90;99.90
1948;DHT22;974;52.400;9.818;2022-09-19T15:37:24;11.90;99.90
1948;DHT22;974;52.400;9.818;2022-09-19T15:39:52;11.90;99.90
1948;DHT22;974;52.400;9.818;2022-09-19T15:42:18;12.00;99.90
1948;DHT22;974;52.400;9.818;2022-09-19T15:44:45;11.70;99.90
1948;DHT22;974;52.400;9.818;2022-09-19T15:47:16;11.80;99.90
1948;DHT22;974;52.400;9.818;2022-09-19T15:49:44;11.90;99.90
1948;DHT22;974;52.400;9.818;2022-09-19T15:52:27;11.90;99.90
1948;DHT22;974;52.400;9.818;2022-09-19T15:54:55;11.80;99.90
1948;DHT22;974;52.400;9.818;2022-09-19T15:57:50;11.90;99.90
1948;DHT22;974;52.400;9.818;2022-09-19T16:00:20;11.60;99.90
1948;DHT22;974;52.400;9.818;2022-09-19T16:02:50;11.40;99.90
1948;DHT22;974;52.400;9.818;2022-09-19T16:05:34;11.40;99.90
1948;DHT22;974;52.400;9.818;2022-09-19T16:08:03;11.20;99.90
1948;DHT22;974;52.400;9.818;2022-09-19T16:11:27;11.30;99.90
1948;DHT22;974;52.400;9.818;2022-09-19T16:13:53;11.40;99.90
1948;DHT22;974;52.400;9.818;2022-09-19T16:16:34;11.30;99.90
1948;DHT22;974;52.400;9.818;2022-09-19T16:18:59;11.30;99.90
1948;DHT22;974;52.400;9.818;2022-09-19T16:21:39;11.20;99.90
1948;DHT22;974;52.400;9.818;2022-09-19T16:24:09;11.30;99.90
1948;DHT22;974;52.400;9.818;2022-09-19T16:26:37;11.20;99.90
1948;DHT22;974;52.400;9.818;2022-09-19T16:29:03;11.20;99.90
1948;DHT22;974;52.400;9.818;2022-09-19T16:31:42;11.10;99.90
1948;DHT22;974;52.400;9.818;2022-09-19T16:34:37;11.20;99.90
1948;DHT22;974;52.400;9.818;2022-09-19T16:37:23;11.10;99.90
1948;DHT22;974;52.400;9.818;2022-09-19T16:39:50;11.20;99.90
1948;DHT22;974;52.400;9.818;2022-09-19T16:47:17;11.30;99.90
1948;DHT22;974;52.400;9.818;2022-09-19T16:49:47;11.40;99.90
1948;DHT22;974;52.400;9.818;2022-09-19T16:52:26;11.30;99.90
1948;DHT22;974;52.400;9.818;2022-09-19T16:54:54;11.40;99.90
1948;DHT22;974;52.400;9.818;2022-09-19T16:57:21;11.40;99.90
1948;DHT22;974;52.400;9.818;2022-09-19T16:59:49;11.40;99.90
1948;DHT22;974;52.400;9.818;2022-09-19T17:02:27;11.50;99.90
1948;DHT22;974;52.400;9.818;2022-09-19T17:04:54;11.60;99.90
1948;DHT22;974;52.400;9.818;2022-09-19T17:07:20;11.60;99.90
1948;DHT22;974;52.400;9.818;2022-09-19T17:09:47;11.60;99.90
1948;DHT22;974;52.400;9.818;2022-09-19T17:12:14;11.50;99.90
1948;DHT22;974;52.400;9.818;2022-09-19T17:14:41;11.40;99.90
1948;DHT22;974;52.400;9.818;2022-09-19T17:17:09;11.40;99.90
1948;DHT22;974;52.400;9.818;2022-09-19T17:19:35;11.30;99.90
1948;DHT22;974;52.400;9.818;2022-09-19T17:22:00;11.30;99.90
1948;DHT22;974;52.400;9.818;2022-09-19T17:24:26;11.20;99.90
1948;DHT22;974;52.400;9.818;2022-09-19T17:26:52;11.20;99.90
1948;DHT22;974;52.400;9.818;2022-09-19T17:29:17;11.20;99.90
1948;DHT22;974;52.400;9.818;2022-09-19T17:31:43;11.10;99.90
1948;DHT22;974;52.400;9.818;2022-09-19T17:34:09;11.10;99.90
1948;DHT22;974;52.400;9.818;2022-09-19T17:36:35;11.00;99.90
1948;DHT22;974;52.400;9.818;2022-09-19T17:39:01;11.00;99.90
1948;DHT22;974;52.400;9.818;2022-09-19T17:41:29;10.90;99.90
1948;DHT22;974;52.400;9.818;2022-09-19T17:43:55;10.90;99.90
1948;DHT22;974;52.400;9.818;2022-09-19T17:46:21;10.90;99.90
1948;DHT22;974;52.400;9.818;2022-09-19T17:48:50;10.90;99.90
1948;DHT22;974;52.400;9.818;2022-09-19T17:51:16;10.90;99.90
1948;DHT22;974;52.400;9.818;2022-09-19T17:53:44;10.80;99.90
1948;DHT22;974;52.400;9.818;2022-09-19T17:56:15;10.90;99.90
1948;DHT22;974;52.400;9.818;2022-09-19T17:58:41;10.90;99.90
1948;DHT22;974;52.400;9.818;2022-09-19T18:01:07;10.90;99.90
1948;DHT22;974;52.400;9.818;2022-09-19T18:03:51;10.80;99.90
1948;DHT22;974;52.400;9.818;2022-09-19T18:06:17;10.80;99.90
1948;DHT22;974;52.400;9.818;2022-09-19T18:08:43;10.70;99.90
1948;DHT22;974;52.400;9.818;2022-09-19T18:11:09;10.80;99.90
1948;DHT22;974;52.400;9.818;2022-09-19T18:13:35;10.80;99.90
1948;DHT22;974;52.400;9.818;2022-09-19T18:16:06;10.80;99.90
1948;DHT22;974;52.400;9.818;2022-09-19T18:18:34;10.80;99.90
1948;DHT22;974;52.400;9.818;2022-09-19T18:21:01;10.80;99.90
1948;DHT22;974;52.400;9.818;2022-09-19T18:23:32;10.80;99.90
1948;DHT22;974;52.400;9.818;2022-09-19T18:25:58;10.80;99.90
1948;DHT22;974;52.400;9.818;2022-09-19T18:28:26;10.80;99.90
1948;DHT22;974;52.400;9.818;2022-09-19T18:30:52;10.70;99.90
1948;DHT22;974;52.400;9.818;2022-09-19T18:33:20;10.70;99.90
1948;DHT22;974;52.400;9.818;2022-09-19T18:35:46;10.70;99.90
1948;DHT22;974;52.400;9.818;2022-09-19T18:38:11;10.80;99.90
1948;DHT22;974;52.400;9.818;2022-09-19T18:40:37;10.70;99.90
1948;DHT22;974;52.400;9.818;2022-09-19T18:43:02;10.80;99.90
1948;DHT22;974;52.400;9.818;2022-09-19T18:45:28;10.80;99.90
1948;DHT22;974;52.400;9.818;2022-09-19T18:47:53;10.80;99.90
1948;DHT22;974;52.400;9.818;2022-09-19T18:50:19;10.80;99.90
1948;DHT22;974;52.400;9.818;2022-09-19T18:52:45;10.80;99.90
1948;DHT22;974;52.400;9.818;2022-09-19T18:55:10;10.80;99.90
1948;DHT22;974;52.400;9.818;2022-09-19T18:57:36;10.80;99.90
1948;DHT22;974;52.400;9.818;2022-09-19T19:00:02;10.80;99.90
1948;DHT22;974;52.400;9.818;2022-09-19T19:02:29;10.80;99.90